Time;durP1;ratioP1;P1;durP2;ratioP2;P2;SDS_P1;SDS_P2;PMS_P1;PMS_P2;Temp;Humidity;BMP_temperature;BMP_pressure;BME280_temperature;BME280_humidity;BME280_pressure;Samples;Min_cycle;Max_cycle;Signal;HPM_P1;HPM_P2
2023/02/08 00:02:29;;;;;;;;;;;;;;;;;;8398896;28;27308;-84
2023/02/08 00:06:29;;;;;;;;;;;;;;;;;;8380709;28;28705;-83
2023/02/08 00:10:29;;;;;;;;;;;;;;;;;;8379185;28;28523;-84
2023/02/08 00:14:29;;;;;;;;;;;;;;;;;;8386946;28;29721;-85
2023/02/08 00:18:29;;;;;;;;;;;;;;;;;;8404674;28;27296;-86
2023/02/08 00:22:29;;;;;;;;;;;;;;;;;;8379065;28;28683;-85
2023/02/08 00:26:29;;;;;;;;;;;;;;;;;;8386064;28;28886;-85
2023/02/08 00:30:29;;;;;;;;;;;;;;;;;;8403660;28;27876;-85
2023/02/08 00:34:29;;;;;;;;;;;;;;;;;;8406944;28;27695;-84
2023/02/08 00:38:29;;;;;;;;;;;;;;;;;;8399699;28;28483;-84
2023/02/08 00:42:29;;;;;;;;;;;;;;;;;;8396087;28;27154;-85
2023/02/08 00:46:29;;;;;;;;;;;;;;;;;;8377777;28;28919;-85
2023/02/08 00:50:29;;;;;;;;;;;;;;;;;;8398605;28;27434;-87
2023/02/08 00:54:30;;;;;;;;;;;;;;;;;;8399153;28;27538;-85
2023/02/08 00:58:30;;;;;;;;;;;;;;;;;;8404884;28;27319;-85
2023/02/08 01:02:30;;;;;;;;;;;;;;;;;;8387295;28;28547;-83
2023/02/08 01:06:30;;;;;;;;;;;;;;;;;;8405619;28;28312;-84
2023/02/08 01:10:30;;;;;;;;;;;;;;;;;;8400633;28;28296;-84
2023/02/08 01:14:30;;;;;;;;;;;;;;;;;;8392985;28;28828;-84
2023/02/08 01:18:30;;;;;;;;;;;;;;;;;;8389952;28;28805;-84
2023/02/08 01:22:30;;;;;;;;;;;;;;;;;;8406332;28;27024;-84
2023/02/08 01:26:30;;;;;;;;;;;;;;;;;;8410140;28;28224;-85
2023/02/08 01:30:30;;;;;;;;;;;;;;;;;;8386167;28;28803;-84
2023/02/08 01:34:30;;;;;;;;;;;;;;;;;;8383966;28;28996;-84
2023/02/08 01:38:30;;;;;;;;;;;;;;;;;;8413679;28;27301;-84
2023/02/08 01:42:31;;;;;;;;;;;;;;;;;;8403742;28;30049;-84
2023/02/08 01:46:31;;;;;;;;;;;;;;;;;;8419419;28;27419;-83
2023/02/08 01:50:31;;;;;;;;;;;;;;;;;;8395293;28;28563;-84
2023/02/08 01:54:31;;;;;;;;;;;;;;;;;;8406226;28;28542;-84
2023/02/08 01:58:31;;;;;;;;;;;;;;;;;;8405025;28;28483;-82
2023/02/08 02:02:31;;;;;;;;;;;;;;;;;;8410848;28;27296;-85
2023/02/08 02:06:31;;;;;;;;;;;;;;;;;;8396048;28;28560;-84
2023/02/08 02:10:31;;;;;;;;;;;;;;;;;;8396962;28;28784;-85
2023/02/08 02:14:31;;;;;;;;;;;;;;;;;;8404048;28;28805;-83
2023/02/08 02:18:32;;;;;;;;;;;;;;;;;;8394464;28;29922;-83
2023/02/08 02:22:32;;;;;;;;;;;;;;;;;;8399404;28;28806;-84
2023/02/08 02:26:32;;;;;;;;;;;;;;;;;;8412476;28;27549;-84
2023/02/08 02:30:32;;;;;;;;;;;;;;;;;;8392438;28;28571;-84
2023/02/08 02:34:32;;;;;;;;;;;;;;;;;;8419996;28;27115;-85
2023/02/08 02:38:32;;;;;;;;;;;;;;;;;;8413579;28;27407;-83
2023/02/08 02:46:51;;;;;;;;;;;;;;;;;;8410595;28;27362;-83
2023/02/08 02:50:51;;;;;;;;;;;;;;;;;;8397504;28;28710;-84
2023/02/08 02:54:51;;;;;;;;;;;;;;;;;;8389787;28;28706;-82
2023/02/08 02:58:52;;;;;;;;;;;;;;;;;;8382873;28;28796;-83
2023/02/08 03:02:52;;;;;;;;;;;;;;;;;;8409499;28;27480;-83
2023/02/08 03:06:52;;;;;;;;;;;;;;;;;;8409641;28;27485;-83
2023/02/08 03:10:52;;;;;;;;;;;;;;;;;;8391604;28;28885;-83
2023/02/08 03:14:52;;;;;;;;;;;;;;;;;;8398882;28;28518;-83
2023/02/08 03:18:52;;;;;;;;;;;;;;;;;;8395410;28;28893;-84
2023/02/08 03:22:52;;;;;;;;;;;;;;;;;;8413915;28;27642;-85
2023/02/08 03:26:52;;;;;;;;;;;;;;;;;;8405184;28;27118;-84
2023/02/08 03:30:52;;;;;;;;;;;;;;;;;;8416657;28;27156;-84
2023/02/08 03:34:53;;;;;;;;;;;;;;;;;;8400069;28;29186;-84
2023/02/08 03:38:53;;;;;;;;;;;;;;;;;;8404392;28;28482;-84
2023/02/08 03:42:53;;;;;;;;;;;;;;;;;;8415705;28;27442;-84
2023/02/08 03:46:53;;;;;;;;;;;;;;;;;;8387117;28;29930;-85
2023/02/08 03:50:53;;;;;;;;;;;;;;;;;;8415405;28;27025;-85
2023/02/08 03:54:53;;;;;;;;;;;;;;;;;;8391014;28;28744;-84
2023/02/08 03:58:53;;;;;;;;;;;;;;;;;;8384092;28;28471;-84
2023/02/08 04:02:53;;;;;;;;;;;;;;;;;;8411717;27;27593;-85
2023/02/08 04:06:53;;;;;;;;;;;;;;;;;;8394896;28;28522;-86
2023/02/08 04:10:53;;;;;;;;;;;;;;;;;;8391747;28;28579;-85
2023/02/08 04:14:53;;;;;;;;;;;;;;;;;;8382110;28;28455;-84
2023/02/08 04:18:54;;;;;;;;;;;;;;;;;;8408841;28;27305;-85
2023/02/08 04:22:54;;;;;;;;;;;;;;;;;;8395192;28;28471;-84
2023/02/08 04:26:54;;;;;;;;;;;;;;;;;;8393496;28;28571;-86
2023/02/08 04:30:55;;;;;;;;;;;;;;;;;;8387972;28;29901;-84
2023/02/08 04:34:55;;;;;;;;;;;;;;;;;;8394958;28;28927;-84
2023/02/08 04:38:55;;;;;;;;;;;;;;;;;;8411235;28;28016;-84
2023/02/08 04:42:55;;;;;;;;;;;;;;;;;;8413862;28;27309;-84
2023/02/08 04:46:55;;;;;;;;;;;;;;;;;;8410694;27;27236;-85
2023/02/08 04:50:56;;;;;;;;;;;;;;;;;;8404970;28;27489;-85
2023/02/08 04:54:56;;;;;;;;;;;;;;;;;;8388229;28;28539;-85
2023/02/08 04:58:56;;;;;;;;;;;;;;;;;;8420578;28;27265;-84
2023/02/08 05:02:56;;;;;;;;;;;;;;;;;;8392342;28;28842;-85
2023/02/08 05:06:56;;;;;;;;;;;;;;;;;;8387931;28;28762;-84
2023/02/08 05:10:56;;;;;;;;;;;;;;;;;;8386470;28;29855;-85
2023/02/08 05:14:56;;;;;;;;;;;;;;;;;;8386159;28;28372;-84
2023/02/08 05:18:56;;;;;;;;;;;;;;;;;;8396714;28;28477;-85
2023/02/08 05:22:56;;;;;;;;;;;;;;;;;;8390462;28;28576;-84
2023/02/08 05:26:56;;;;;;;;;;;;;;;;;;8413908;28;27158;-86
2023/02/08 05:30:57;;;;;;;;;;;;;;;;;;8404035;28;27154;-84
2023/02/08 05:34:57;;;;;;;;;;;;;;;;;;8398388;28;27251;-82
2023/02/08 05:38:57;;;;;;;;;;;;;;;;;;8391251;28;28879;-84
2023/02/08 05:42:57;;;;;;;;;;;;;;;;;;8409995;28;27723;-84
2023/02/08 05:46:57;;;;;;;;;;;;;;;;;;8394595;28;27513;-84
2023/02/08 05:50:58;;;;;;;;;;;;;;;;;;8390351;28;28502;-83
2023/02/08 05:54:58;;;;;;;;;;;;;;;;;;8389083;28;28891;-85
2023/02/08 05:58:58;;;;;;;;;;;;;;;;;;8407279;28;27159;-84
2023/02/08 06:02:58;;;;;;;;;;;;;;;;;;8383026;28;28765;-85
2023/02/08 06:06:58;;;;;;;;;;;;;;;;;;8389264;28;28535;-86
2023/02/08 06:10:58;;;;;;;;;;;;;;;;;;8416538;28;28156;-84
2023/02/08 06:14:58;;;;;;;;;;;;;;;;;;8395524;28;28787;-84
2023/02/08 06:18:59;;;;;;;;;;;;;;;;;;8396319;28;28535;-84
2023/02/08 06:22:59;;;;;;;;;;;;;;;;;;8392094;28;28937;-84
2023/02/08 06:26:59;;;;;;;;;;;;;;;;;;8389142;28;28514;-84
2023/02/08 06:30:59;;;;;;;;;;;;;;;;;;8408788;28;27343;-84
2023/02/08 06:34:59;;;;;;;;;;;;;;;;;;8408651;27;27496;-84
2023/02/08 06:38:59;;;;;;;;;;;;;;;;;;8420051;28;27132;-84
2023/02/08 06:42:59;;;;;;;;;;;;;;;;;;8383912;28;28531;-84
2023/02/08 06:46:59;;;;;;;;;;;;;;;;;;8395426;28;30297;-83
2023/02/08 06:50:59;;;;;;;;;;;;;;;;;;8412035;28;27349;-84
2023/02/08 06:54:59;;;;;;;;;;;;;;;;;;8411995;27;28012;-85
2023/02/08 06:58:59;;;;;;;;;;;;;;;;;;8408383;28;27967;-86
2023/02/08 07:03:00;;;;;;;;;;;;;;;;;;8397337;28;28440;-84
2023/02/08 07:07:00;;;;;;;;;;;;;;;;;;8391820;28;29948;-81
2023/02/08 07:11:00;;;;;;;;;;;;;;;;;;8415739;28;27242;-84
2023/02/08 07:15:00;;;;;;;;;;;;;;;;;;8402084;28;29002;-84
2023/02/08 07:19:00;;;;;;;;;;;;;;;;;;8388797;28;29582;-84
2023/02/08 07:23:00;;;;;;;;;;;;;;;;;;8405501;28;27614;-83
2023/02/08 07:27:01;;;;;;;;;;;;;;;;;;8410728;28;27119;-84
2023/02/08 07:31:01;;;;;;;;;;;;;;;;;;8407313;28;27263;-83
2023/02/08 07:35:01;;;;;;;;;;;;;;;;;;8407673;28;27180;-82
2023/02/08 07:39:01;;;;;;;;;;;;;;;;;;8386880;28;28925;-81
2023/02/08 07:43:01;;;;;;;;;;;;;;;;;;8394602;28;28540;-84
2023/02/08 07:47:01;;;;;;;;;;;;;;;;;;8412221;28;27339;-81
2023/02/08 07:51:02;;;;;;;;;;;;;;;;;;8407329;28;27091;-84
2023/02/08 07:55:02;;;;;;;;;;;;;;;;;;8413323;28;27685;-83
2023/02/08 07:59:02;;;;;;;;;;;;;;;;;;8387563;28;28854;-84
2023/02/08 08:03:02;;;;;;;;;;;;;;;;;;8389773;28;28424;-82
2023/02/08 08:07:02;;;;;;;;;;;;;;;;;;8388821;28;28444;-81
2023/02/08 08:11:02;;;;;;;;;;;;;;;;;;8404674;28;27105;-82
2023/02/08 08:15:02;;;;;;;;;;;;;;;;;;8407238;28;28013;-82
2023/02/08 08:19:02;;;;;;;;;;;;;;;;;;8382977;28;28937;-82
2023/02/08 08:23:02;;;;;;;;;;;;;;;;;;8389288;28;29810;-83
2023/02/08 08:27:02;;;;;;;;;;;;;;;;;;8411282;28;27158;-84
2023/02/08 08:31:02;;;;;;;;;;;;;;;;;;8414747;28;27225;-84
2023/02/08 08:35:03;;;;;;;;;;;;;;;;;;8407791;28;28025;-83
2023/02/08 08:39:03;;;;;;;;;;;;;;;;;;8387634;28;29018;-84
2023/02/08 08:43:03;;;;;;;;;;;;;;;;;;8416287;28;27138;-84
2023/02/08 08:47:03;;;;;;;;;;;;;;;;;;8402389;28;27465;-84
2023/02/08 08:51:03;;;;;;;;;;;;;;;;;;8384702;28;28882;-83
2023/02/08 08:55:03;;;;;;;;;;;;;;;;;;8405150;28;27502;-82
2023/02/08 08:59:03;;;;;;;;;;;;;;;;;;8394057;28;28783;-82
2023/02/08 09:03:03;;;;;;;;;;;;;;;;;;8407226;28;27307;-83
2023/02/08 09:07:03;;;;;;;;;;;;;;;;;;8386456;28;28780;-82
2023/02/08 09:11:03;;;;;;;;;;;;;;;;;;8385643;28;28881;-83
2023/02/08 09:15:04;;;;;;;;;;;;;;;;;;8414909;28;28446;-84
2023/02/08 09:19:04;;;;;;;;;;;;;;;;;;8409580;28;27677;-83
2023/02/08 09:23:04;;;;;;;;;;;;;;;;;;8418688;28;27332;-83
2023/02/08 09:27:04;;;;;;;;;;;;;;;;;;8387010;28;29678;-83
2023/02/08 09:31:04;;;;;;;;;;;;;;;;;;8399691;28;27247;-81
2023/02/08 09:35:04;;;;;;;;;;;;;;;;;;8399326;28;27250;-83
2023/02/08 09:39:04;;;;;;;;;;;;;;;;;;8407482;28;27169;-84
2023/02/08 09:43:04;;;;;;;;;;;;;;;;;;8411230;28;27349;-84
2023/02/08 09:47:04;;;;;;;;;;;;;;;;;;8413640;28;28099;-87
2023/02/08 09:51:04;;;;;;;;;;;;;;;;;;8402547;28;27217;-86
2023/02/08 09:55:05;;;;;;;;;;;;;;;;;;8397742;28;28462;-85
2023/02/08 09:59:05;;;;;;;;;;;;;;;;;;8403546;28;27058;-87
2023/02/08 10:03:05;;;;;;;;;;;;;;;;;;8405495;28;27076;-86
2023/02/08 10:07:05;;;;;;;;;;;;;;;;;;8415441;28;27920;-84
2023/02/08 10:11:05;;;;;;;;;;;;;;;;;;8388742;28;28817;-87
2023/02/08 10:15:05;;;;;;;;;;;;;;;;;;8390842;28;28762;-83
2023/02/08 10:19:05;;;;;;;;;;;;;;;;;;8405607;28;27414;-84
2023/02/08 10:23:05;;;;;;;;;;;;;;;;;;8402615;28;27392;-82
2023/02/08 10:27:05;;;;;;;;;;;;;;;;;;8408627;28;27294;-87
2023/02/08 10:31:05;;;;;;;;;;;;;;;;;;8399647;28;28837;-84
2023/02/08 10:35:06;;;;;;;;;;;;;;;;;;8388791;28;28521;-84
2023/02/08 10:39:06;;;;;;;;;;;;;;;;;;8406388;28;27164;-82
2023/02/08 10:43:06;;;;;;;;;;;;;;;;;;8415019;28;27707;-85
2023/02/08 10:47:07;;;;;;;;;;;;;;;;;;8388584;28;28765;-83
2023/02/08 10:51:07;;;;;;;;;;;;;;;;;;8390494;28;28708;-83
2023/02/08 10:55:07;;;;;;;;;;;;;;;;;;8413800;28;28086;-84
2023/02/08 10:59:08;;;;;;;;;;;;;;;;;;8398351;28;28777;-87
2023/02/08 11:03:08;;;;;;;;;;;;;;;;;;8397455;28;29842;-85
2023/02/08 11:07:08;;;;;;;;;;;;;;;;;;8398196;28;28531;-83
2023/02/08 11:11:08;;;;;;;;;;;;;;;;;;8408800;28;28558;-84
2023/02/08 11:15:08;;;;;;;;;;;;;;;;;;8390655;28;28787;-86
2023/02/08 11:19:08;;;;;;;;;;;;;;;;;;8400105;28;28481;-83
2023/02/08 11:23:08;;;;;;;;;;;;;;;;;;8385886;28;29021;-84
2023/02/08 11:27:08;;;;;;;;;;;;;;;;;;8411185;28;27260;-83
2023/02/08 11:31:08;;;;;;;;;;;;;;;;;;8395621;28;27978;-84
2023/02/08 11:35:08;;;;;;;;;;;;;;;;;;8396480;28;28837;-84
2023/02/08 11:39:08;;;;;;;;;;;;;;;;;;8383613;28;28585;-83
2023/02/08 11:43:08;;;;;;;;;;;;;;;;;;8392382;28;28483;-84
2023/02/08 11:47:08;;;;;;;;;;;;;;;;;;8415912;28;27591;-84
2023/02/08 11:51:09;;;;;;;;;;;;;;;;;;8417526;28;27234;-84
2023/02/08 11:55:09;;;;;;;;;;;;;;;;;;8416794;28;27223;-84
2023/02/08 11:59:11;;;;;;;;;;;;;;;;;;8401081;28;29892;-85
2023/02/08 12:03:11;;;;;;;;;;;;;;;;;;8420990;28;27122;-83
2023/02/08 12:07:11;;;;;;;;;;;;;;;;;;8412012;28;27499;-86
2023/02/08 12:11:11;;;;;;;;;;;;;;;;;;8416553;28;27400;-85
2023/02/08 12:15:11;;;;;;;;;;;;;;;;;;8390326;28;28859;-84
2023/02/08 12:19:11;;;;;;;;;;;;;;;;;;8393058;28;28806;-84
2023/02/08 12:23:11;;;;;;;;;;;;;;;;;;8391708;28;28750;-85
2023/02/08 12:27:11;;;;;;;;;;;;;;;;;;8410833;28;27293;-84
2023/02/08 12:31:11;;;;;;;;;;;;;;;;;;8405224;28;27365;-84
2023/02/08 12:35:14;;;;;;;;;;;;;;;;;;8393863;28;28574;-85
2023/02/08 12:43:33;;;;;;;;;;;;;;;;;;8410024;28;27140;-84
2023/02/08 12:47:33;;;;;;;;;;;;;;;;;;8406031;28;27439;-85
2023/02/08 12:51:33;;;;;;;;;;;;;;;;;;8419474;27;27371;-86
2023/02/08 12:55:33;;;;;;;;;;;;;;;;;;8386867;28;28756;-85
2023/02/08 12:59:33;;;;;;;;;;;;;;;;;;8406078;27;28161;-84
2023/02/08 13:03:34;;;;;;;;;;;;;;;;;;8409590;28;27187;-84
2023/02/08 13:07:34;;;;;;;;;;;;;;;;;;8390881;28;28759;-86
2023/02/08 13:11:34;;;;;;;;;;;;;;;;;;8412020;28;27095;-86
2023/02/08 13:15:34;;;;;;;;;;;;;;;;;;8397622;28;28941;-83
2023/02/08 13:19:34;;;;;;;;;;;;;;;;;;8393256;28;28674;-84
2023/02/08 13:23:34;;;;;;;;;;;;;;;;;;8416111;28;27293;-84
2023/02/08 13:27:34;;;;;;;;;;;;;;;;;;8403723;28;28469;-82
2023/02/08 13:31:34;;;;;;;;;;;;;;;;;;8406057;28;27138;-85
2023/02/08 13:35:34;;;;;;;;;;;;;;;;;;8389996;28;28973;-85
2023/02/08 13:39:35;;;;;;;;;;;;;;;;;;8408377;28;27131;-86
2023/02/08 13:43:35;;;;;;;;;;;;;;;;;;8395613;28;28786;-86
2023/02/08 13:47:35;;;;;;;;;;;;;;;;;;8398050;28;29847;-83
2023/02/08 13:51:35;;;;;;;;;;;;;;;;;;8402888;28;28506;-84
2023/02/08 13:55:37;;;;;;;;;;;;;;;;;;8399199;28;28874;-83
2023/02/08 13:59:40;;;;;;;;;;;;;;;;;;8401658;28;27426;-82
2023/02/08 14:03:40;;;;;;;;;;;;;;;;;;8390529;28;30263;-84
2023/02/08 14:07:40;;;;;;;;;;;;;;;;;;8415770;28;27446;-85
2023/02/08 14:11:41;;;;;;;;;;;;;;;;;;8411763;28;27088;-85
2023/02/08 14:15:42;;;;;;;;;;;;;;;;;;8383185;28;28231;-86
2023/02/08 14:19:42;;;;;;;;;;;;;;;;;;8409691;28;27102;-82
2023/02/08 14:23:42;;;;;;;;;;;;;;;;;;8407033;28;27149;-83
2023/02/08 14:27:43;;;;;;;;;;;;;;;;;;8390880;28;28747;-84
2023/02/08 14:31:43;;;;;;;;;;;;;;;;;;8398341;28;28731;-87
2023/02/08 14:35:43;;;;;;;;;;;;;;;;;;8413914;28;27041;-85
2023/02/08 14:39:44;;;;;;;;;;;;;;;;;;8412321;28;28056;-86
2023/02/08 14:43:47;;;;;;;;;;;;;;;;;;8388713;28;28668;-83
2023/02/08 14:47:47;;;;;;;;;;;;;;;;;;8413896;28;27904;-81
2023/02/08 14:51:47;;;;;;;;;;;;;;;;;;8390342;28;28731;-86
2023/02/08 14:55:47;;;;;;;;;;;;;;;;;;8405735;28;27669;-83
2023/02/08 14:59:47;;;;;;;;;;;;;;;;;;8388346;28;28571;-82
2023/02/08 15:03:47;;;;;;;;;;;;;;;;;;8388647;28;27862;-84
2023/02/08 15:07:48;;;;;;;;;;;;;;;;;;8394236;28;29914;-83
2023/02/08 15:11:48;;;;;;;;;;;;;;;;;;8388531;28;28567;-85
2023/02/08 15:15:48;;;;;;;;;;;;;;;;;;8408776;28;27678;-83
2023/02/08 15:19:48;;;;;;;;;;;;;;;;;;8406801;28;27694;-82
2023/02/08 15:23:48;;;;;;;;;;;;;;;;;;8397135;28;27285;-84
2023/02/08 15:27:48;;;;;;;;;;;;;;;;;;8404916;27;27782;-80
2023/02/08 15:31:48;;;;;;;;;;;;;;;;;;8384782;28;28157;-80
2023/02/08 15:35:48;;;;;;;;;;;;;;;;;;8388439;28;28711;-82
2023/02/08 15:39:48;;;;;;;;;;;;;;;;;;8378798;28;28414;-80
2023/02/08 15:43:49;;;;;;;;;;;;;;;;;;8404151;28;27251;-81
2023/02/08 15:47:49;;;;;;;;;;;;;;;;;;8381111;28;28510;-81
2023/02/08 15:51:49;;;;;;;;;;;;;;;;;;8384079;28;28462;-81
2023/02/08 15:55:50;;;;;;;;;;;;;;;;;;8399564;28;27328;-79
2023/02/08 15:59:50;;;;;;;;;;;;;;;;;;8376237;28;29820;-80
2023/02/08 16:03:50;;;;;;;;;;;;;;;;;;8382280;28;28829;-82
2023/02/08 16:07:50;;;;;;;;;;;;;;;;;;8399097;28;27440;-83
2023/02/08 16:11:51;;;;;;;;;;;;;;;;;;8399221;28;27358;-82
2023/02/08 16:15:51;;;;;;;;;;;;;;;;;;8379180;28;28498;-83
2023/02/08 16:19:51;;;;;;;;;;;;;;;;;;8399692;28;27275;-81
2023/02/08 16:23:51;;;;;;;;;;;;;;;;;;8386073;28;29501;-82
2023/02/08 16:27:51;;;;;;;;;;;;;;;;;;8403189;28;27530;-80
2023/02/08 16:31:51;;;;;;;;;;;;;;;;;;8384578;28;28627;-81
2023/02/08 16:35:51;;;;;;;;;;;;;;;;;;8399573;28;27953;-80
2023/02/08 16:39:51;;;;;;;;;;;;;;;;;;8381231;28;28485;-80
2023/02/08 16:43:51;;;;;;;;;;;;;;;;;;8386854;28;28822;-82
2023/02/08 16:47:52;;;;;;;;;;;;;;;;;;8381632;28;28880;-82
2023/02/08 16:51:53;;;;;;;;;;;;;;;;;;8398391;28;27764;-83
2023/02/08 16:55:55;;;;;;;;;;;;;;;;;;8375635;28;47615;-82
2023/02/08 16:59:55;;;;;;;;;;;;;;;;;;8381623;28;28845;-83
2023/02/08 17:03:55;;;;;;;;;;;;;;;;;;8400618;28;27586;-81
2023/02/08 17:07:55;;;;;;;;;;;;;;;;;;8382612;28;28686;-83
2023/02/08 17:11:55;;;;;;;;;;;;;;;;;;8387702;28;28559;-82
2023/02/08 17:15:56;;;;;;;;;;;;;;;;;;8379345;28;28497;-83
2023/02/08 17:19:56;;;;;;;;;;;;;;;;;;8386487;28;28538;-81
2023/02/08 17:23:56;;;;;;;;;;;;;;;;;;8403450;28;27375;-83
2023/02/08 17:27:56;;;;;;;;;;;;;;;;;;8382961;28;28593;-82
2023/02/08 17:31:56;;;;;;;;;;;;;;;;;;8378870;28;28895;-82
2023/02/08 17:35:56;;;;;;;;;;;;;;;;;;8385718;28;28183;-82
2023/02/08 17:39:56;;;;;;;;;;;;;;;;;;8382731;28;28487;-83
2023/02/08 17:43:56;;;;;;;;;;;;;;;;;;8380542;27;29682;-83
2023/02/08 17:47:57;;;;;;;;;;;;;;;;;;8392689;28;28616;-81
2023/02/08 17:51:57;;;;;;;;;;;;;;;;;;8389906;28;27666;-83
2023/02/08 17:55:57;;;;;;;;;;;;;;;;;;8383256;28;29663;-82
2023/02/08 17:59:57;;;;;;;;;;;;;;;;;;8383019;28;29547;-86
2023/02/08 18:03:57;;;;;;;;;;;;;;;;;;8395542;28;27765;-83
2023/02/08 18:07:57;;;;;;;;;;;;;;;;;;8398035;28;27267;-83
2023/02/08 18:11:57;;;;;;;;;;;;;;;;;;8398165;28;27661;-82
2023/02/08 18:15:57;;;;;;;;;;;;;;;;;;8391302;28;27951;-83
2023/02/08 18:19:57;;;;;;;;;;;;;;;;;;8397981;28;27330;-81
2023/02/08 18:23:58;;;;;;;;;;;;;;;;;;8383879;28;29771;-82
2023/02/08 18:27:58;;;;;;;;;;;;;;;;;;8386647;28;28255;-82
2023/02/08 18:31:58;;;;;;;;;;;;;;;;;;8399301;28;27702;-83
2023/02/08 18:35:58;;;;;;;;;;;;;;;;;;8404001;28;27548;-82
2023/02/08 18:39:58;;;;;;;;;;;;;;;;;;8382689;28;28791;-81
2023/02/08 18:43:58;;;;;;;;;;;;;;;;;;8402476;28;28101;-82
2023/02/08 18:47:58;;;;;;;;;;;;;;;;;;8379156;28;29833;-82
2023/02/08 18:51:58;;;;;;;;;;;;;;;;;;8403414;28;27176;-82
2023/02/08 18:55:58;;;;;;;;;;;;;;;;;;8381986;28;28505;-81
2023/02/08 18:59:58;;;;;;;;;;;;;;;;;;8394542;27;28787;-81
2023/02/08 19:03:58;;;;;;;;;;;;;;;;;;8410816;28;28074;-81
2023/02/08 19:07:59;;;;;;;;;;;;;;;;;;8374847;28;28953;-81
2023/02/08 19:11:59;;;;;;;;;;;;;;;;;;8407656;28;27895;-82
2023/02/08 19:15:59;;;;;;;;;;;;;;;;;;8401119;28;28873;-81
2023/02/08 19:19:59;;;;;;;;;;;;;;;;;;8405690;28;28496;-82
2023/02/08 19:23:59;;;;;;;;;;;;;;;;;;8412089;28;27342;-81
2023/02/08 19:27:59;;;;;;;;;;;;;;;;;;8405116;28;27904;-82
2023/02/08 19:31:59;;;;;;;;;;;;;;;;;;8394167;28;27270;-81
2023/02/08 19:35:59;;;;;;;;;;;;;;;;;;8395313;28;27462;-84
2023/02/08 19:39:59;;;;;;;;;;;;;;;;;;8378013;28;28886;-80
2023/02/08 19:44:00;;;;;;;;;;;;;;;;;;8386709;28;28705;-81
2023/02/08 19:48:00;;;;;;;;;;;;;;;;;;8398395;28;27332;-81
2023/02/08 19:52:00;;;;;;;;;;;;;;;;;;8392675;28;27170;-81
2023/02/08 19:56:00;;;;;;;;;;;;;;;;;;8395510;28;27225;-81
2023/02/08 20:00:00;;;;;;;;;;;;;;;;;;8380505;28;28965;-81
2023/02/08 20:04:00;;;;;;;;;;;;;;;;;;8374040;28;28747;-82
2023/02/08 20:08:00;;;;;;;;;;;;;;;;;;8372056;28;28618;-81
2023/02/08 20:12:00;;;;;;;;;;;;;;;;;;8389522;28;29541;-81
2023/02/08 20:16:00;;;;;;;;;;;;;;;;;;8405366;28;27682;-80
2023/02/08 20:20:01;;;;;;;;;;;;;;;;;;8399108;28;27148;-81
2023/02/08 20:24:01;;;;;;;;;;;;;;;;;;8393260;28;27183;-80
2023/02/08 20:28:01;;;;;;;;;;;;;;;;;;8404037;28;27695;-80
2023/02/08 20:32:01;;;;;;;;;;;;;;;;;;8395892;28;28798;-81
2023/02/08 20:36:01;;;;;;;;;;;;;;;;;;8400677;28;27902;-81
2023/02/08 20:40:01;;;;;;;;;;;;;;;;;;8397936;28;27757;-81
2023/02/08 20:44:01;;;;;;;;;;;;;;;;;;8397375;28;27565;-80
2023/02/08 20:48:01;;;;;;;;;;;;;;;;;;8374548;28;28492;-81
2023/02/08 20:52:01;;;;;;;;;;;;;;;;;;8380677;28;28598;-80
2023/02/08 20:56:01;;;;;;;;;;;;;;;;;;8398732;28;27354;-82
2023/02/08 21:00:01;;;;;;;;;;;;;;;;;;8384771;28;28776;-84
2023/02/08 21:04:01;;;;;;;;;;;;;;;;;;8401461;28;27518;-80
2023/02/08 21:08:01;;;;;;;;;;;;;;;;;;8401836;28;28577;-80
2023/02/08 21:12:02;;;;;;;;;;;;;;;;;;8379171;28;28662;-79
2023/02/08 21:16:02;;;;;;;;;;;;;;;;;;8406647;28;27245;-80
2023/02/08 21:20:02;;;;;;;;;;;;;;;;;;8387458;28;28318;-81
2023/02/08 21:24:02;;;;;;;;;;;;;;;;;;8395690;28;27192;-81
2023/02/08 21:28:02;;;;;;;;;;;;;;;;;;8400237;28;27417;-81
2023/02/08 21:32:02;;;;;;;;;;;;;;;;;;8375512;28;28694;-81
2023/02/08 21:36:02;;;;;;;;;;;;;;;;;;8394706;28;27442;-83
2023/02/08 21:40:02;;;;;;;;;;;;;;;;;;8390795;28;27228;-80
2023/02/08 21:44:03;;;;;;;;;;;;;;;;;;8393639;28;27403;-82
2023/02/08 21:48:03;;;;;;;;;;;;;;;;;;8373245;28;29576;-81
2023/02/08 21:56:22;;;;;;;;;;;;;;;;;;8397147;27;27585;-83
2023/02/08 22:00:22;;;;;;;;;;;;;;;;;;8381587;28;29409;-81
2023/02/08 22:04:22;;;;;;;;;;;;;;;;;;8386322;28;28890;-82
2023/02/08 22:08:22;;;;;;;;;;;;;;;;;;8381669;28;28791;-80
2023/02/08 22:12:22;;;;;;;;;;;;;;;;;;8386231;28;29857;-82
2023/02/08 22:16:22;;;;;;;;;;;;;;;;;;8397543;28;27837;-82
2023/02/08 22:20:22;;;;;;;;;;;;;;;;;;8379462;28;29982;-82
2023/02/08 22:24:22;;;;;;;;;;;;;;;;;;8399101;28;27277;-82
2023/02/08 22:28:22;;;;;;;;;;;;;;;;;;8376005;28;29639;-82
2023/02/08 22:32:23;;;;;;;;;;;;;;;;;;8402617;28;27683;-81
2023/02/08 22:36:23;;;;;;;;;;;;;;;;;;8381410;28;28879;-83
2023/02/08 22:40:23;;;;;;;;;;;;;;;;;;8403854;28;27621;-82
2023/02/08 22:44:23;;;;;;;;;;;;;;;;;;8393009;28;28665;-84
2023/02/08 22:48:23;;;;;;;;;;;;;;;;;;8414443;28;27384;-82
2023/02/08 22:52:24;;;;;;;;;;;;;;;;;;8391110;28;28309;-82
2023/02/08 22:56:24;;;;;;;;;;;;;;;;;;8394666;28;28355;-79
2023/02/08 23:00:24;;;;;;;;;;;;;;;;;;8406448;28;28503;-81
2023/02/08 23:04:24;;;;;;;;;;;;;;;;;;8405978;28;27574;-82
2023/02/08 23:08:24;;;;;;;;;;;;;;;;;;8387125;28;29865;-83
2023/02/08 23:12:25;;;;;;;;;;;;;;;;;;8402114;28;28609;-82
2023/02/08 23:16:25;;;;;;;;;;;;;;;;;;8378733;28;28443;-84
2023/02/08 23:20:25;;;;;;;;;;;;;;;;;;8407177;28;27974;-82
2023/02/08 23:24:25;;;;;;;;;;;;;;;;;;8400180;28;27310;-83
2023/02/08 23:28:25;;;;;;;;;;;;;;;;;;8402891;28;28199;-83
2023/02/08 23:32:25;;;;;;;;;;;;;;;;;;8391166;27;28552;-82
2023/02/08 23:36:25;;;;;;;;;;;;;;;;;;8387831;28;28434;-81
2023/02/08 23:40:25;;;;;;;;;;;;;;;;;;8394416;28;28686;-82
2023/02/08 23:44:25;;;;;;;;;;;;;;;;;;8389811;28;28744;-82
2023/02/08 23:48:25;;;;;;;;;;;;;;;;;;8385307;28;28468;-82
2023/02/08 23:52:25;;;;;;;;;;;;;;;;;;8383845;28;28810;-82
2023/02/08 23:56:25;;;;;;;;;;;;;;;;;;8387283;28;28928;-81
